createdAt,value
2017-01-31T00:11:55.990Z,0
2017-01-31T00:12:39.275Z,0
2017-01-31T00:18:17.389Z,0
2017-01-31T00:22:22.988Z,0
2017-01-31T00:23:14.703Z,0
2017-01-31T00:30:17.845Z,0
2017-01-31T00:31:04.466Z,0
2017-01-31T00:31:58.471Z,0
2017-01-31T00:32:46.540Z,0
2017-01-31T00:33:30.460Z,0
2017-01-31T00:34:14.632Z,0
2017-01-31T01:16:37.220Z,0
2017-01-31T01:17:19.236Z,0
2017-01-31T01:18:03.158Z,0
2017-01-31T01:18:49.158Z,0
2017-01-31T06:19:20.020Z,0
2017-01-31T06:20:02.775Z,0
2017-01-31T06:30:43.031Z,0
2017-01-31T06:34:31.485Z,0
2017-01-31T06:37:13.001Z,0
2017-01-31T06:37:54.357Z,0
2017-01-31T06:41:43.691Z,0
2017-01-31T06:42:24.151Z,0
2017-01-31T07:17:57.382Z,10
2017-01-31T07:18:38.661Z,10
2017-01-31T07:22:48.363Z,20
2017-01-31T07:23:28.775Z,15
2017-01-31T07:25:51.466Z,20
2017-01-31T07:26:32.610Z,20
2017-01-31T07:27:13.736Z,20
2017-01-31T07:27:55.805Z,20
2017-01-31T07:28:36.260Z,20
2017-01-31T07:29:16.709Z,20
2017-01-31T07:29:57.812Z,20
2017-01-31T07:30:38.274Z,25
2017-01-31T07:31:19.630Z,25
2017-01-31T07:32:00.794Z,25
2017-01-31T07:32:43.032Z,25
2017-01-31T07:33:23.463Z,25
2017-01-31T07:34:04.555Z,30
2017-01-31T07:34:45.002Z,30
2017-01-31T07:35:27.294Z,35
2017-01-31T07:36:07.730Z,35
2017-01-31T07:36:51.029Z,30
2017-01-31T07:37:32.127Z,30
2017-01-31T07:38:12.580Z,30
2017-01-31T07:38:54.518Z,30
2017-01-31T07:39:34.985Z,30
2017-01-31T07:40:16.958Z,35
2017-01-31T07:40:57.462Z,35
2017-01-31T07:41:37.914Z,35
2017-01-31T07:42:18.447Z,35
2017-01-31T07:42:58.926Z,40
2017-01-31T07:43:41.099Z,45
2017-01-31T07:44:21.551Z,45
2017-01-31T07:45:05.524Z,45
2017-01-31T08:13:04.749Z,65
2017-01-31T08:13:46.155Z,65
2017-01-31T08:14:27.306Z,70
2017-01-31T08:15:08.756Z,70
2017-01-31T08:15:50.146Z,75
2017-01-31T08:16:30.632Z,75
2017-01-31T08:17:13.752Z,80
2017-01-31T08:17:54.168Z,80
2017-01-31T08:18:35.445Z,80
2017-01-31T08:19:15.903Z,80
2017-01-31T08:19:59.658Z,80
2017-01-31T08:20:51.653Z,80
2017-01-31T08:21:33.739Z,80
2017-01-31T08:22:14.169Z,80
2017-01-31T08:22:54.636Z,80
2017-01-31T08:23:36.023Z,80
2017-01-31T08:24:16.482Z,75
2017-01-31T08:25:00.374Z,75
2017-01-31T08:25:42.266Z,80
2017-01-31T08:26:22.722Z,80
2017-01-31T08:27:04.744Z,75
2017-01-31T08:31:20.670Z,90
2017-01-31T08:32:01.165Z,95
2017-01-31T09:32:53.144Z,230
2017-01-31T09:40:38.338Z,265
2017-01-31T09:41:19.321Z,265
2017-01-31T09:43:52.545Z,260
2017-01-31T09:44:39.631Z,265
2017-01-31T09:45:38.740Z,240
2017-01-31T10:13:44.089Z,180
2017-01-31T10:14:26.952Z,180
2017-01-31T10:15:07.363Z,190
2017-01-31T10:15:48.515Z,200
2017-01-31T10:16:30.445Z,200
2017-01-31T10:17:10.913Z,195
2017-01-31T10:17:51.918Z,185
2017-01-31T10:18:33.118Z,185
2017-01-31T10:19:13.577Z,190
2017-01-31T10:21:31.589Z,195
2017-01-31T10:22:14.146Z,200
2017-01-31T10:22:55.550Z,205
2017-01-31T10:23:35.989Z,220
2017-01-31T10:24:19.014Z,240
2017-01-31T10:29:41.357Z,275
2017-01-31T10:30:24.430Z,275
2017-01-31T10:31:04.867Z,275
2017-01-31T10:31:51.371Z,270
2017-01-31T10:32:32.503Z,265
2017-01-31T10:33:14.887Z,260
2017-01-31T10:35:31.005Z,265
2017-01-31T10:36:11.414Z,255
2017-01-31T10:36:51.867Z,240
2017-01-31T10:37:35.487Z,230
2017-01-31T10:38:16.041Z,225
2017-01-31T10:38:58.012Z,225
2017-01-31T10:39:39.289Z,225
2017-01-31T10:40:19.739Z,225
2017-01-31T10:41:00.830Z,230
2017-01-31T10:41:42.085Z,235
2017-01-31T11:16:16.640Z,370
2017-01-31T11:16:59.186Z,355
2017-01-31T11:17:40.501Z,340
2017-01-31T11:18:20.934Z,325
2017-01-31T12:14:06.955Z,215
2017-01-31T12:16:21.331Z,215
2017-01-31T12:17:03.020Z,195
2017-01-31T12:17:43.502Z,180
2017-01-31T12:18:25.710Z,165
2017-01-31T12:19:13.560Z,150
2017-01-31T12:21:46.758Z,105
2017-01-31T12:24:22.597Z,105
2017-01-31T12:25:11.407Z,110
2017-01-31T12:27:25.865Z,120
2017-01-31T21:08:12.466Z,0
2017-01-31T21:08:52.965Z,0
2017-01-31T21:09:33.463Z,0
2017-01-31T21:15:25.040Z,0
2017-01-31T21:16:05.350Z,0
2017-01-31T21:16:45.821Z,0
2017-01-31T21:17:26.318Z,0
2017-01-31T21:18:06.745Z,0
2017-01-31T21:18:47.195Z,0
2017-01-31T21:19:27.653Z,0
2017-01-31T21:20:08.163Z,0
2017-01-31T21:20:48.633Z,0
2017-01-31T21:21:29.111Z,0
2017-01-31T21:22:09.598Z,0
2017-01-31T21:22:50.140Z,0
2017-01-31T21:23:30.556Z,0
2017-01-31T21:24:11.021Z,0
2017-01-31T21:24:51.491Z,0
2017-01-31T21:25:32.010Z,0
2017-01-31T21:26:12.470Z,0
2017-01-31T21:26:52.923Z,0
2017-01-31T21:27:33.410Z,0
2017-01-31T21:28:13.873Z,0
2017-01-31T21:29:54.890Z,0
2017-01-31T21:30:35.373Z,0
2017-01-31T21:31:15.834Z,0
2017-01-31T21:31:56.316Z,0
2017-01-31T21:32:36.790Z,0
2017-01-31T21:33:17.246Z,0
2017-01-31T21:33:57.706Z,0
2017-01-31T21:34:38.203Z,0
2017-01-31T21:35:18.676Z,0
2017-01-31T21:35:59.121Z,0
2017-01-31T21:36:39.600Z,0
2017-01-31T21:37:20.083Z,0
2017-01-31T21:38:00.493Z,0
2017-01-31T21:38:40.983Z,0
2017-01-31T21:39:21.456Z,0
2017-01-31T21:40:01.933Z,0
2017-01-31T21:40:42.416Z,0
2017-01-31T21:41:22.875Z,0
2017-01-31T21:42:03.366Z,0
2017-01-31T21:42:43.829Z,0
2017-01-31T21:43:24.268Z,0
2017-01-31T21:44:04.726Z,0
2017-01-31T21:44:45.196Z,0
2017-01-31T21:45:25.648Z,0
2017-01-31T21:46:06.104Z,0
2017-01-31T21:46:46.582Z,0
2017-01-31T21:47:27.040Z,0
2017-01-31T21:48:07.480Z,0
2017-01-31T21:48:47.940Z,0
2017-01-31T21:49:28.409Z,0
2017-01-31T21:50:08.851Z,0
2017-01-31T21:50:49.331Z,0
2017-01-31T21:51:29.789Z,0
2017-01-31T21:52:10.240Z,0
2017-01-31T21:52:50.716Z,0
2017-01-31T21:53:31.187Z,0
2017-01-31T21:54:11.672Z,0
2017-01-31T21:54:52.091Z,0
2017-01-31T21:55:32.554Z,0
2017-01-31T21:56:13.011Z,0
2017-01-31T21:56:53.509Z,0
2017-01-31T21:57:33.977Z,0
2017-01-31T21:58:14.444Z,0
2017-01-31T22:00:42.442Z,0
2017-01-31T22:01:22.934Z,0
2017-01-31T22:02:03.408Z,0
2017-01-31T22:02:43.900Z,0
2017-01-31T22:03:24.390Z,0
2017-01-31T22:04:04.817Z,0
2017-01-31T22:04:46.100Z,0
2017-01-31T22:05:26.555Z,0
2017-01-31T22:06:07.021Z,0
2017-01-31T22:06:47.455Z,0
2017-01-31T22:07:27.925Z,0
2017-01-31T22:08:08.397Z,0
2017-01-31T22:08:48.914Z,0
2017-01-31T22:11:01.810Z,0
2017-01-31T22:11:42.287Z,0
2017-01-31T22:12:22.793Z,0
2017-01-31T22:13:03.262Z,0
2017-01-31T22:13:43.704Z,0
2017-01-31T22:14:24.159Z,0
2017-01-31T22:15:04.613Z,0
2017-01-31T22:15:45.093Z,0
2017-01-31T22:16:25.582Z,0
2017-01-31T22:17:06.039Z,0
2017-01-31T22:17:46.478Z,0
2017-01-31T22:18:26.951Z,0
2017-01-31T22:19:07.426Z,0
2017-01-31T22:19:47.847Z,0
2017-01-31T22:20:28.311Z,0
2017-01-31T22:21:08.800Z,0
2017-01-31T22:21:49.261Z,0
2017-01-31T22:22:29.720Z,0
2017-01-31T22:23:10.156Z,0
2017-01-31T22:23:50.639Z,0
2017-01-31T22:24:31.060Z,0
2017-01-31T22:25:11.569Z,0
2017-01-31T22:25:52.002Z,0
2017-01-31T22:26:32.500Z,0
2017-01-31T22:27:13.029Z,0
2017-01-31T22:27:53.455Z,0
2017-01-31T22:28:33.898Z,0
2017-01-31T22:29:14.370Z,0
2017-01-31T22:29:54.797Z,0
2017-01-31T22:32:07.616Z,0
2017-01-31T22:32:48.065Z,0
2017-01-31T22:33:28.560Z,0
2017-01-31T22:34:09.016Z,0
2017-01-31T22:34:49.500Z,0
2017-01-31T22:35:29.948Z,0
2017-01-31T22:36:10.414Z,0
2017-01-31T22:36:50.907Z,0
2017-01-31T22:37:31.346Z,0
2017-01-31T22:38:11.819Z,0
2017-01-31T22:38:52.270Z,0
2017-01-31T22:39:32.716Z,0
2017-01-31T22:40:13.189Z,0
2017-01-31T22:40:53.734Z,0
2017-01-31T22:41:34.204Z,0
2017-01-31T22:42:14.684Z,0
2017-01-31T22:42:55.115Z,0
2017-01-31T22:43:35.574Z,0
2017-01-31T22:44:16.025Z,0
2017-01-31T22:44:56.501Z,0
2017-01-31T22:45:36.969Z,0
2017-01-31T22:46:17.429Z,0
2017-01-31T22:46:57.907Z,0
2017-01-31T22:47:38.341Z,0
2017-01-31T22:48:18.758Z,0
2017-01-31T22:48:59.239Z,0
2017-01-31T22:49:39.717Z,0
2017-01-31T22:50:20.158Z,0
2017-01-31T22:51:00.608Z,0
2017-01-31T22:51:41.098Z,0
2017-01-31T22:52:21.578Z,0
2017-01-31T22:53:02.056Z,0
2017-01-31T22:53:42.498Z,0
2017-01-31T22:54:22.973Z,0
2017-01-31T22:55:03.451Z,0
2017-01-31T22:55:43.943Z,0
2017-01-31T22:56:24.378Z,0
2017-01-31T22:57:04.822Z,0
2017-01-31T22:57:45.273Z,0
2017-01-31T22:58:25.729Z,0
2017-01-31T22:59:06.168Z,0
2017-01-31T22:59:46.638Z,0
2017-01-31T23:00:27.104Z,0
2017-01-31T23:01:07.582Z,0
2017-01-31T23:01:48.005Z,0
2017-01-31T23:02:28.452Z,0
2017-01-31T23:04:41.174Z,0
2017-01-31T23:05:21.621Z,0
2017-01-31T23:06:02.081Z,0
2017-01-31T23:06:42.532Z,0
2017-01-31T23:07:23.004Z,0
2017-01-31T23:08:03.473Z,0
2017-01-31T23:08:43.956Z,0
2017-01-31T23:09:24.411Z,0
2017-01-31T23:10:04.818Z,0
2017-01-31T23:10:45.282Z,0
2017-01-31T23:11:25.736Z,0
2017-01-31T23:12:06.183Z,0
2017-01-31T23:12:46.657Z,0
2017-01-31T23:13:27.114Z,0
2017-01-31T23:14:07.568Z,0
2017-01-31T23:14:48.030Z,0
2017-01-31T23:15:28.522Z,0
2017-01-31T23:16:08.945Z,0
2017-01-31T23:16:49.407Z,0
2017-01-31T23:17:29.836Z,0
2017-01-31T23:18:10.286Z,0
2017-01-31T23:18:50.757Z,0
2017-01-31T23:19:31.203Z,0
2017-01-31T23:20:11.649Z,0
2017-01-31T23:20:52.111Z,0
2017-01-31T23:21:32.554Z,0
2017-01-31T23:22:12.988Z,0
2017-01-31T23:22:53.476Z,0
2017-01-31T23:23:33.889Z,0
2017-01-31T23:24:14.345Z,0
2017-01-31T23:24:54.811Z,0
2017-01-31T23:25:35.247Z,0
2017-01-31T23:26:15.709Z,0
2017-01-31T23:26:56.178Z,0
2017-01-31T23:27:36.624Z,0
2017-01-31T23:28:17.033Z,0
2017-01-31T23:30:34.931Z,0
2017-01-31T23:31:15.372Z,0
2017-01-31T23:31:55.874Z,0
2017-01-31T23:32:36.306Z,0
2017-01-31T23:33:16.765Z,0
2017-01-31T23:33:57.222Z,0
2017-01-31T23:34:37.712Z,0
2017-01-31T23:35:18.164Z,0
2017-01-31T23:35:58.605Z,0
2017-01-31T23:36:39.052Z,0
2017-01-31T23:37:19.498Z,0
2017-01-31T23:37:59.974Z,0
2017-01-31T23:38:40.446Z,0
2017-01-31T23:39:20.910Z,0
2017-01-31T23:40:01.373Z,0
2017-01-31T23:40:41.823Z,0
2017-01-31T23:41:22.290Z,0
2017-01-31T23:42:02.755Z,0
2017-01-31T23:42:43.231Z,0
2017-01-31T23:43:23.688Z,0
2017-01-31T23:44:04.126Z,0
2017-01-31T23:44:44.541Z,0
2017-01-31T23:45:24.990Z,0
2017-01-31T23:46:05.436Z,0
2017-01-31T23:46:45.901Z,0
2017-01-31T23:47:26.384Z,0
2017-01-31T23:48:06.828Z,0
2017-01-31T23:48:47.268Z,0
2017-01-31T23:49:27.723Z,0
2017-01-31T23:50:08.186Z,0
2017-01-31T23:50:48.660Z,0
2017-01-31T23:51:29.121Z,0
2017-01-31T23:52:09.604Z,0
2017-01-31T23:52:50.030Z,0
2017-01-31T23:53:30.505Z,0
2017-01-31T23:54:10.997Z,0
2017-01-31T23:54:51.421Z,0
2017-01-31T23:55:31.892Z,0
2017-01-31T23:56:12.333Z,0
2017-01-31T23:56:52.753Z,0
2017-01-31T23:57:33.185Z,0
2017-01-31T23:58:13.641Z,0
2017-01-31T23:58:54.123Z,0
2017-01-31T23:59:34.541Z,0
